Enter the Airport ICAO Code

Search by Airport or City

Current Weather

MMSP | Ponciano Arriaga International Airport

San Luis Potosí City, San Luis Potosí, Mexico

Last Update 14 Minutes Ago

Clear Sky

Temperature of 23 ºC

Light to Moderate Winds from SouthWest

Temperature

23 ºC

Dew Point Temperature

08 ºC Below Zero

Relative Humidity

11.97 %

Wind Direction

SouthWest (240º, Without Significant Variations)

Wind Velocity

13 km/h (07 kt)

Gusts

None

Visibility

Greater than 10 Miles

Sea Level Pressure

30.12 inHg (Inches of Mercury)

Layers of Clouds

None

METAR MMSP 022146Z 24007KT 10SM SKC 23/M08 A3012 RMK ISOL CU

Weather Forecast

MMSP | Ponciano Arriaga International Airport

San Luis Potosí City, San Luis Potosí, Mexico

Forecast valid for the next 26 Hours

From now on it is expected:

Clear Sky

Moderate Winds from West

In 2 to 3 hours it is expected the begining of:

Calm Wind

In 11 hours it is expected the begining of:

Partly Cloudy Sky

In 14 hours it is expected the begining of 3 hours with intermittent periods of:

Mist

In 18 hours it is expected the begining of:

Moderate Winds from West

Maximum Temperature

24 ºC in 23 Hours

Minimum Temperature

04 ºC in 14 Hours

TAF MMSP 021652Z 0218/0324 26012KT P6SM SKC TX24/0321Z TN04/0312Z BECMG 0300/0301 00000KT FM030900 00000KT 3SM HZ SCT010 TEMPO 0312/0315 1SM BR OVC010 FM031600 27010KT 5SM HZ SCT015